Time;durP1;ratioP1;P1;durP2;ratioP2;P2;SDS_P1;SDS_P2;PMS_P1;PMS_P2;Temp;Humidity;BMP_temperature;BMP_pressure;BME280_temperature;BME280_humidity;BME280_pressure;Samples;Min_cycle;Max_cycle;Signal;HPM_P1;HPM_P2
2021/12/18 00:01:41;;;;;;;7.65;3.17;;;;;;;12.14;63.83;103986.06;5065132;27;124173;-65
2021/12/18 00:04:08;;;;;;;6.60;3.20;;;;;;;12.15;63.79;103978.09;5050368;27;114578;-65
2021/12/18 00:06:35;;;;;;;7.03;3.25;;;;;;;12.16;63.80;103974.53;5053911;27;114121;-64
2021/12/18 00:09:04;;;;;;;8.05;3.40;;;;;;;12.16;63.89;103974.53;5062560;27;123788;-65
2021/12/18 00:11:31;;;;;;;7.22;3.20;;;;;;;12.17;63.81;103971.00;5056110;27;123981;-65
2021/12/18 00:13:58;;;;;;;7.30;3.65;;;;;;;12.17;63.77;103965.69;5050050;27;114075;-65
2021/12/18 00:16:26;;;;;;;7.90;3.50;;;;;;;12.17;63.86;103971.00;5031420;27;112946;-65
2021/12/18 00:18:56;;;;;;;7.05;3.47;;;;;;;12.18;63.95;103967.44;5050930;27;124837;-64
2021/12/18 00:21:24;;;;;;;7.68;3.50;;;;;;;12.18;63.65;103972.75;5049598;27;124122;-65
2021/12/18 00:23:52;;;;;;;7.25;3.65;;;;;;;12.16;63.80;103963.91;5051456;27;115512;-66
2021/12/18 00:26:20;;;;;;;8.45;3.20;;;;;;;12.15;63.68;103962.16;5054672;27;115276;-65
2021/12/18 00:28:47;;;;;;;7.57;3.45;;;;;;;12.14;63.80;103955.06;5063048;27;124335;-66
2021/12/18 00:31:15;;;;;;;8.00;3.38;;;;;;;12.16;63.75;103957.72;5069111;27;123895;-66
2021/12/18 00:33:42;;;;;;;8.60;3.20;;;;;;;12.16;63.67;103963.91;5043112;27;114356;-65
2021/12/18 00:36:10;;;;;;;9.50;3.50;;;;;;;12.15;63.78;103956.84;5059673;27;114263;-65
2021/12/18 00:38:39;;;;;;;6.50;2.90;;;;;;;12.16;63.82;103963.91;5033410;27;123879;-65
2021/12/18 00:43:39;;;;;;;7.82;3.28;;;;;;;12.21;63.97;103950.63;5063066;27;116257;-65
2021/12/18 00:46:06;;;;;;;6.13;3.10;;;;;;;12.22;63.97;103947.97;5058124;27;113892;-65
2021/12/18 00:48:33;;;;;;;8.05;3.47;;;;;;;12.23;63.86;103943.53;5050085;27;124146;-65
2021/12/18 00:51:01;;;;;;;5.82;3.00;;;;;;;12.24;63.72;103946.22;5041660;27;123880;-65
2021/12/18 00:53:30;;;;;;;5.55;2.53;;;;;;;12.25;63.77;103947.09;5052049;27;114213;-65
2021/12/18 00:55:58;;;;;;;6.28;2.78;;;;;;;12.25;63.84;103947.97;5041781;27;113418;-65
2021/12/18 00:58:25;;;;;;;6.78;2.80;;;;;;;12.26;63.85;103933.78;5041360;27;124719;-65
2021/12/18 01:00:53;;;;;;;5.97;2.70;;;;;;;12.25;63.62;103932.00;5037113;27;123356;-65
2021/12/18 01:03:21;;;;;;;6.05;2.63;;;;;;;12.24;63.75;103943.56;5070885;27;115046;-64
2021/12/18 01:05:49;;;;;;;8.82;3.33;;;;;;;12.25;63.71;103942.66;5055553;27;113844;-65
2021/12/18 01:08:18;;;;;;;7.10;2.80;;;;;;;12.25;63.79;103942.66;5048178;27;124238;-65
2021/12/18 01:13:24;;;;;;;7.07;2.97;;;;;;;12.25;63.56;103939.13;5053012;27;115244;-65
2021/12/18 01:15:55;;;;;;;8.02;3.28;;;;;;;12.24;63.70;103950.63;5042686;27;115305;-65
2021/12/18 01:23:54;;;;;;;;;;;;;;;12.17;63.94;103930.28;5056844;27;114904;-64
2021/12/18 01:26:23;;;;;;;7.32;2.97;;;;;;;12.17;63.59;103933.81;5049890;27;112766;-64
2021/12/18 01:28:50;;;;;;;8.93;2.90;;;;;;;12.15;63.77;103940.91;5068532;27;123771;-64
2021/12/18 01:31:18;;;;;;;5.72;2.70;;;;;;;12.14;63.73;103939.13;5061983;27;124239;-64
2021/12/18 01:33:45;;;;;;;6.32;2.90;;;;;;;12.13;63.90;103948.00;5051073;27;114815;-65
2021/12/18 01:36:12;;;;;;;7.43;3.50;;;;;;;12.12;63.97;103946.22;5033545;27;112941;-64
2021/12/18 01:38:39;;;;;;;9.73;3.75;;;;;;;12.12;63.60;103951.53;5049722;27;124064;-64
2021/12/18 01:41:06;;;;;;;9.73;3.88;;;;;;;12.09;63.78;103948.88;5049428;27;124737;-64
2021/12/18 01:46:44;;;;;;;7.97;3.70;;;;;;;12.06;63.92;103954.19;5062656;27;114300;-64
2021/12/18 01:52:05;;;;;;;6.93;3.60;;;;;;;12.03;63.86;103956.84;5056397;27;124222;-65
2021/12/18 01:54:32;;;;;;;8.95;3.83;;;;;;;12.03;64.12;103962.16;5043235;27;114522;-66
2021/12/18 01:56:59;;;;;;;7.60;3.40;;;;;;;12.03;63.96;103952.41;5053881;27;112984;-65
2021/12/18 01:59:36;;;;;;;7.35;3.60;;;;;;;12.02;63.82;103961.28;5064509;27;125266;-65
2021/12/18 02:02:04;;;;;;;7.50;3.67;;;;;;;12.03;63.74;103956.84;5057520;27;124327;-64
2021/12/18 02:04:32;;;;;;;6.13;3.05;;;;;;;12.00;63.83;103964.84;5061050;27;115141;-65
2021/12/18 02:07:00;;;;;;;7.53;3.78;;;;;;;11.98;63.84;103958.63;5059008;27;114499;-65
2021/12/18 02:09:44;;;;;;;7.35;3.88;;;;;;;11.96;63.93;103956.00;5062753;27;124581;-65
2021/12/18 02:12:11;;;;;;;8.32;3.90;;;;;;;11.95;63.97;103955.97;5052781;27;123696;-65
2021/12/18 02:20:37;;;;;;;8.30;3.58;;;;;;;11.94;64.04;103962.16;5063506;27;123945;-65
2021/12/18 02:23:05;;;;;;;7.18;3.20;;;;;;;11.93;63.97;103955.09;5063303;27;123732;-64
2021/12/18 02:25:35;;;;;;;7.03;3.30;;;;;;;11.91;63.91;103954.22;5061416;27;114269;-64
2021/12/18 02:28:07;;;;;;;6.32;3.35;;;;;;;11.88;63.88;103948.00;5070555;27;114064;-64
2021/12/18 02:30:35;;;;;;;6.40;3.45;;;;;;;11.87;63.85;103951.53;5071755;27;124818;-65
2021/12/18 02:33:02;;;;;;;6.93;3.50;;;;;;;11.85;63.83;103953.28;5040009;27;124266;-65
2021/12/18 02:35:39;;;;;;;6.88;3.17;;;;;;;11.82;64.10;103953.28;5051654;27;113251;-65
2021/12/18 02:38:18;;;;;;;6.13;3.17;;;;;;;11.82;63.94;103942.66;5051604;27;114346;-65
2021/12/18 02:43:29;;;;;;;7.00;3.55;;;;;;;11.81;64.00;103943.56;5052574;27;123901;-65
2021/12/18 02:46:06;;;;;;;7.93;3.55;;;;;;;11.81;64.00;103938.25;5046328;27;114346;-64
2021/12/18 02:48:36;;;;;;;7.72;3.45;;;;;;;11.81;64.03;103945.31;5051851;27;113817;-66
2021/12/18 02:51:06;;;;;;;6.47;2.92;;;;;;;11.81;64.05;103946.22;5050966;27;124587;-65
2021/12/18 02:53:35;;;;;;;9.57;4.15;;;;;;;11.80;64.02;103932.94;5066923;27;125140;-65
2021/12/18 02:56:05;;;;;;;9.13;4.50;;;;;;;11.78;63.85;103918.78;5052565;27;115192;-65
2021/12/18 02:58:41;;;;;;;10.50;4.10;;;;;;;11.75;63.80;103924.97;5058674;27;115528;-65
2021/12/18 03:01:12;;;;;;;7.75;3.92;;;;;;;11.71;64.09;103923.19;5064209;27;125246;-65
2021/12/18 03:03:41;;;;;;;10.63;4.05;;;;;;;11.69;64.14;103919.66;5054458;27;123615;-64
2021/12/18 03:06:36;;;;;;;7.25;3.65;;;;;;;11.70;64.23;103918.78;5046666;27;113242;-65
2021/12/18 03:25:30;;;;;;;9.98;4.28;;;;;;;11.62;64.38;103905.53;5049826;27;124086;-65
2021/12/18 03:28:03;;;;;;;10.25;4.30;;;;;;;11.64;64.43;103910.81;5032995;27;114316;-64
2021/12/18 03:30:31;;;;;;;7.32;3.45;;;;;;;11.65;64.51;103907.28;5033529;27;113130;-65
2021/12/18 03:32:59;;;;;;;8.27;3.60;;;;;;;11.64;64.37;103910.81;5066087;27;124075;-65
2021/12/18 03:35:27;;;;;;;6.47;3.20;;;;;;;11.61;64.48;103910.81;5072116;27;125194;-65
2021/12/18 03:37:54;;;;;;;6.78;3.25;;;;;;;11.61;64.62;103910.81;5064967;27;114590;-65
2021/12/18 03:40:23;;;;;;;9.30;3.65;;;;;;;11.61;64.42;103905.50;5050044;27;113942;-65
2021/12/18 03:42:50;;;;;;;7.22;3.05;;;;;;;11.61;64.62;103908.16;5033445;27;122813;-65
2021/12/18 03:45:19;;;;;;;6.53;3.17;;;;;;;11.61;64.50;103910.81;5041473;27;123490;-65
2021/12/18 03:47:48;;;;;;;8.13;3.30;;;;;;;11.63;64.54;103919.66;5062732;27;115228;-66
2021/12/18 03:50:16;;;;;;;7.10;3.10;;;;;;;11.65;64.56;103907.28;5051772;27;115661;-66
2021/12/18 03:52:43;;;;;;;6.70;3.08;;;;;;;11.66;64.62;103914.38;5059447;27;124423;-66
2021/12/18 03:55:11;;;;;;;8.02;3.53;;;;;;;11.66;64.43;103904.63;5046188;27;123784;-66
2021/12/18 03:57:38;;;;;;;6.88;3.28;;;;;;;11.66;64.41;103909.06;5031222;27;114146;-66
2021/12/18 04:00:07;;;;;;;7.55;3.38;;;;;;;11.65;64.65;103908.16;5061585;27;114295;-65
2021/12/18 04:02:39;;;;;;;7.68;3.33;;;;;;;11.67;64.71;103905.50;5055535;27;124624;-65
2021/12/18 04:05:07;;;;;;;6.63;3.22;;;;;;;11.68;64.68;103901.97;5023694;27;123390;-66
2021/12/18 04:07:43;;;;;;;7.75;3.40;;;;;;;11.71;64.72;103896.63;5058449;27;114197;-65
2021/12/18 04:10:14;;;;;;;7.10;3.47;;;;;;;11.75;64.70;103909.03;5070476;27;114634;-64
2021/12/18 04:12:42;;;;;;;7.90;3.53;;;;;;;11.78;64.51;103909.03;5057281;27;124248;-64
2021/12/18 04:15:10;;;;;;;7.75;3.75;;;;;;;11.80;64.60;103907.25;5058044;27;123641;-64
2021/12/18 04:17:37;;;;;;;7.38;2.90;;;;;;;11.82;64.47;103905.47;5048941;27;114243;-64
2021/12/18 04:20:05;;;;;;;5.80;2.92;;;;;;;11.82;64.34;103908.13;5048290;27;114395;-64
2021/12/18 04:22:32;;;;;;;8.15;3.28;;;;;;;11.82;64.45;103900.16;5052763;27;125307;-65
2021/12/18 04:24:59;;;;;;;7.55;3.70;;;;;;;11.80;64.29;103912.56;5057825;27;123810;-65
2021/12/18 04:27:27;;;;;;;7.90;3.60;;;;;;;11.77;64.57;103903.72;5066109;27;114782;-65
2021/12/18 04:29:54;;;;;;;8.13;3.78;;;;;;;11.76;64.57;103926.75;5046957;27;113196;-65
2021/12/18 04:32:22;;;;;;;6.70;3.15;;;;;;;11.76;64.63;103916.13;5058846;27;123898;-65
2021/12/18 04:34:49;;;;;;;7.47;3.70;;;;;;;11.76;64.61;103921.44;5056005;27;123860;-65
2021/12/18 04:37:16;;;;;;;8.57;3.38;;;;;;;11.78;64.43;103924.97;5057589;27;115248;-65
2021/12/18 04:39:43;;;;;;;6.90;3.20;;;;;;;11.78;64.59;103926.75;5069268;27;115292;-65
2021/12/18 04:42:11;;;;;;;7.43;3.70;;;;;;;11.76;64.25;103926.75;5046730;27;123540;-66
2021/12/18 04:44:38;;;;;;;8.20;3.42;;;;;;;11.72;64.57;103919.66;5048905;27;123896;-65
2021/12/18 04:47:05;;;;;;;7.78;3.80;;;;;;;11.71;64.54;103917.88;5054423;27;114647;-65
2021/12/18 04:49:32;;;;;;;7.57;3.13;;;;;;;11.70;64.52;103918.78;5049433;27;114321;-65
2021/12/18 04:52:02;;;;;;;7.35;3.55;;;;;;;11.71;64.53;103920.53;5050396;27;124206;-65
2021/12/18 04:54:29;;;;;;;9.80;3.63;;;;;;;11.72;64.90;103919.66;5054595;27;124426;-65
2021/12/18 04:56:57;;;;;;;9.48;3.70;;;;;;;11.73;64.75;103918.75;5059410;27;115054;-66
2021/12/18 04:59:24;;;;;;;7.53;3.35;;;;;;;11.75;64.66;103922.31;5061734;27;113818;-65
2021/12/18 05:01:52;;;;;;;9.07;3.97;;;;;;;11.75;64.73;103919.66;5067461;27;124415;-65
2021/12/18 05:04:20;;;;;;;10.02;4.50;;;;;;;11.75;64.61;103918.78;5054679;27;124830;-65
2021/12/18 05:06:50;;;;;;;8.93;4.00;;;;;;;11.76;64.72;103925.88;5056576;27;114187;-65
2021/12/18 05:09:18;;;;;;;9.40;4.00;;;;;;;11.76;64.70;103929.41;5059661;27;114494;-65
2021/12/18 05:11:46;;;;;;;10.77;4.10;;;;;;;11.79;64.89;103932.06;5048377;27;124044;-65
2021/12/18 05:14:13;;;;;;;10.48;3.83;;;;;;;11.81;64.57;103934.69;5051044;27;123936;-66
2021/12/18 05:16:41;;;;;;;10.50;4.28;;;;;;;11.82;64.80;103933.81;5034009;27;113393;-65
2021/12/18 05:19:08;;;;;;;11.10;4.50;;;;;;;11.84;64.96;103930.25;5031311;27;113843;-65
2021/12/18 05:21:35;;;;;;;10.95;4.57;;;;;;;11.88;64.68;103932.06;5049210;27;123974;-65
2021/12/18 05:24:03;;;;;;;13.05;4.95;;;;;;;11.87;64.52;103935.59;5066382;27;124260;-65
2021/12/18 05:26:30;;;;;;;13.30;5.50;;;;;;;11.86;64.65;103933.81;5057068;27;114986;-66
2021/12/18 05:28:57;;;;;;;13.25;5.00;;;;;;;11.86;64.58;103933.81;5052201;27;114756;-65
2021/12/18 05:31:24;;;;;;;14.25;5.45;;;;;;;11.86;64.72;103933.81;5030407;27;123986;-65
2021/12/18 05:33:57;;;;;;;12.52;5.30;;;;;;;11.85;64.77;103926.75;5066740;27;124228;-66
2021/12/18 05:36:33;;;;;;;13.77;5.43;;;;;;;11.83;64.75;103933.81;5066169;27;114236;-66
2021/12/18 05:39:10;;;;;;;14.10;5.45;;;;;;;11.81;64.74;103938.25;5030392;27;113935;-65
2021/12/18 05:41:38;;;;;;;11.45;5.10;;;;;;;11.84;64.74;103938.22;5052019;27;124775;-65
2021/12/18 05:44:06;;;;;;;11.98;5.40;;;;;;;11.83;64.71;103933.81;5051035;27;123855;-65
2021/12/18 05:46:34;;;;;;;12.50;5.22;;;;;;;11.82;64.94;103937.34;5049988;27;114629;-65
2021/12/18 05:49:03;;;;;;;13.80;5.60;;;;;;;11.81;64.92;103940.91;5059060;27;114106;-65
2021/12/18 05:51:32;;;;;;;13.02;5.03;;;;;;;11.81;64.89;103934.69;5060348;27;124758;-65
2021/12/18 05:53:59;;;;;;;14.23;5.20;;;;;;;11.83;65.06;103933.81;5051303;27;123797;-66
2021/12/18 05:56:26;;;;;;;10.98;4.95;;;;;;;11.85;64.96;103931.19;5031553;27;113155;-66
2021/12/18 05:58:54;;;;;;;13.02;5.18;;;;;;;11.88;64.93;103932.06;5055851;27;114475;-65
2021/12/18 06:01:22;;;;;;;11.57;4.57;;;;;;;11.91;65.02;103930.31;5048458;27;124015;-65
2021/12/18 06:03:49;;;;;;;11.48;5.10;;;;;;;11.93;64.85;103928.53;5040470;27;123099;-66
2021/12/18 06:06:17;;;;;;;10.77;4.85;;;;;;;11.94;64.79;103927.63;5048501;27;114368;-66
2021/12/18 06:08:44;;;;;;;11.82;4.78;;;;;;;11.94;64.73;103930.28;5049205;27;114041;-66
2021/12/18 06:11:15;;;;;;;11.15;4.72;;;;;;;11.95;64.80;103921.44;5042611;27;124183;-66
2021/12/18 06:13:48;;;;;;;9.60;4.35;;;;;;;11.96;64.86;103923.22;5047757;27;124194;-66
2021/12/18 06:16:18;;;;;;;13.15;4.97;;;;;;;11.95;65.00;103921.44;5061914;27;115107;-67
2021/12/18 06:18:48;;;;;;;14.48;4.53;;;;;;;11.96;64.88;103923.22;5019725;27;114226;-66
2021/12/18 06:21:17;;;;;;;11.88;5.03;;;;;;;11.96;64.59;103917.91;5052385;27;124142;-67
2021/12/18 06:23:47;;;;;;;12.38;4.57;;;;;;;11.97;64.81;103914.38;5046342;27;122676;-67
2021/12/18 06:26:15;;;;;;;12.02;5.15;;;;;;;12.00;64.67;103909.06;5067179;27;114658;-67
2021/12/18 06:28:42;;;;;;;9.38;4.28;;;;;;;11.99;64.60;103915.25;5068918;27;114525;-66
2021/12/18 06:31:29;;;;;;;7.22;3.60;;;;;;;11.98;64.81;103910.81;5064478;27;124694;-66
2021/12/18 06:33:56;;;;;;;7.50;3.50;;;;;;;11.98;64.69;103913.47;5066649;27;123145;-66
2021/12/18 06:36:24;;;;;;;7.63;2.63;;;;;;;11.96;64.63;103918.81;5066331;27;114115;-67
2021/12/18 06:38:51;;;;;;;5.53;2.63;;;;;;;11.95;64.83;103921.44;5041080;27;114256;-66
2021/12/18 06:41:18;;;;;;;5.60;2.70;;;;;;;11.94;64.71;103919.66;5053047;27;125179;-67
2021/12/18 06:43:46;;;;;;;5.93;2.67;;;;;;;11.92;64.60;103910.81;5052921;27;123998;-67
2021/12/18 06:46:13;;;;;;;5.60;2.42;;;;;;;11.92;64.71;103926.75;5034207;27;114205;-67
2021/12/18 06:48:40;;;;;;;6.18;2.45;;;;;;;11.92;64.53;103927.63;5066763;27;114014;-66
2021/12/18 06:51:07;;;;;;;6.05;2.50;;;;;;;11.90;64.81;103917.91;5065635;27;124194;-66
2021/12/18 06:53:34;;;;;;;7.13;2.70;;;;;;;11.88;64.66;103921.44;5052571;27;123234;-66
2021/12/18 06:56:03;;;;;;;5.68;2.67;;;;;;;11.89;64.74;103922.31;5060955;27;114996;-67
2021/12/18 06:58:30;;;;;;;7.38;2.28;;;;;;;11.91;64.66;103917.03;5058055;27;114032;-67
2021/12/18 07:00:58;;;;;;;6.60;2.53;;;;;;;11.91;64.59;103919.69;5051812;27;124057;-66
2021/12/18 07:03:26;;;;;;;6.32;2.30;;;;;;;11.92;64.52;103916.13;5052483;27;123702;-65
2021/12/18 07:05:53;;;;;;;7.93;2.83;;;;;;;11.88;64.57;103918.78;5033148;27;114124;-66
2021/12/18 07:08:20;;;;;;;6.60;2.53;;;;;;;11.87;64.50;103911.69;5050153;27;114963;-67
2021/12/18 07:10:48;;;;;;;6.75;2.63;;;;;;;11.85;64.50;103921.44;5049637;27;124172;-67
2021/12/18 07:13:15;;;;;;;6.15;2.67;;;;;;;11.86;64.65;103919.66;5039658;27;123696;-67
2021/12/18 07:15:42;;;;;;;5.80;2.25;;;;;;;11.85;64.76;103931.19;5067497;27;114073;-67
2021/12/18 07:18:09;;;;;;;4.88;2.17;;;;;;;11.85;64.68;103934.72;5072682;27;114105;-67
2021/12/18 07:20:37;;;;;;;8.40;3.00;;;;;;;11.86;64.68;103933.81;5071909;27;124561;-66
2021/12/18 07:23:04;;;;;;;8.75;2.80;;;;;;;11.87;64.68;103935.59;5070603;27;123816;-67
2021/12/18 07:25:31;;;;;;;6.60;2.72;;;;;;;11.87;64.67;103934.72;5059291;27;114570;-67
2021/12/18 07:27:58;;;;;;;6.57;2.83;;;;;;;11.87;64.80;103932.06;5062685;27;114058;-67
2021/12/18 07:30:27;;;;;;;7.57;2.95;;;;;;;11.86;64.84;103933.81;5055896;27;124979;-66
2021/12/18 07:32:54;;;;;;;7.95;2.85;;;;;;;11.88;64.87;103926.75;5053853;27;122771;-67
2021/12/18 07:35:22;;;;;;;7.45;2.67;;;;;;;11.87;64.59;103929.41;5067016;27;114680;-67
2021/12/18 07:37:49;;;;;;;8.55;3.15;;;;;;;11.88;64.71;103940.03;5055962;27;114306;-67
2021/12/18 07:40:17;;;;;;;8.00;3.05;;;;;;;11.88;64.68;103932.06;5046752;27;123107;-65
2021/12/18 07:42:44;;;;;;;8.27;3.30;;;;;;;11.88;64.71;103942.69;5056988;27;124526;-65
2021/12/18 07:45:12;;;;;;;6.28;2.92;;;;;;;11.88;64.68;103932.06;5051377;27;114090;-66
2021/12/18 07:47:39;;;;;;;6.53;2.70;;;;;;;11.88;64.79;103932.06;5054913;27;114024;-65
2021/12/18 07:50:12;;;;;;;6.78;2.80;;;;;;;11.88;64.94;103936.47;5047416;27;123858;-65
2021/12/18 07:52:39;;;;;;;8.93;2.55;;;;;;;11.87;64.72;103940.91;5036739;27;123591;-66
2021/12/18 07:55:07;;;;;;;7.70;2.33;;;;;;;11.84;64.79;103930.25;5062597;27;115160;-66
2021/12/18 07:57:36;;;;;;;6.95;2.80;;;;;;;11.83;64.84;103933.81;5053441;27;115075;-65
2021/12/18 08:00:06;;;;;;;6.47;2.60;;;;;;;11.81;64.71;103930.28;5053732;27;124113;-65
2021/12/18 08:02:33;;;;;;;7.72;2.70;;;;;;;11.81;64.90;103930.28;5057690;27;124426;-65
2021/12/18 08:05:01;;;;;;;8.73;2.85;;;;;;;11.82;64.89;103926.72;5060582;27;114186;-65
2021/12/18 08:07:28;;;;;;;6.40;2.60;;;;;;;11.82;64.86;103926.72;5049953;27;114314;-65
2021/12/18 08:09:55;;;;;;;6.93;2.53;;;;;;;11.82;64.87;103937.34;5044407;27;123028;-65
2021/12/18 08:12:22;;;;;;;6.25;2.45;;;;;;;11.83;64.93;103933.81;5061496;27;125485;-65
2021/12/18 08:14:49;;;;;;;6.60;2.40;;;;;;;11.84;64.90;103935.56;5053132;27;114414;-65
2021/12/18 08:17:17;;;;;;;8.63;3.00;;;;;;;11.85;64.93;103932.06;5069577;27;114559;-65
2021/12/18 08:19:45;;;;;;;7.38;2.88;;;;;;;11.86;65.00;103928.50;5053661;27;124444;-65
2021/12/18 08:22:12;;;;;;;6.88;2.97;;;;;;;11.86;64.98;103931.16;5049737;27;123883;-65
2021/12/18 08:24:40;;;;;;;8.50;2.90;;;;;;;11.88;64.94;103932.06;5065668;27;114458;-65
2021/12/18 08:27:08;;;;;;;7.53;2.20;;;;;;;11.90;64.95;103928.53;5057366;27;113824;-65
2021/12/18 08:29:35;;;;;;;7.25;2.65;;;;;;;11.89;65.24;103932.94;5048730;27;124532;-65
2021/12/18 08:32:04;;;;;;;7.20;2.40;;;;;;;11.87;64.94;103935.59;5041704;27;123765;-65
2021/12/18 08:34:31;;;;;;;6.95;2.70;;;;;;;11.88;65.03;103937.38;5067943;27;114857;-65
2021/12/18 08:36:58;;;;;;;7.18;2.35;;;;;;;11.88;64.84;103937.38;5059533;27;114143;-65
2021/12/18 08:39:27;;;;;;;6.68;2.72;;;;;;;11.88;64.97;103936.47;5053063;27;123974;-65
2021/12/18 08:41:55;;;;;;;8.15;2.95;;;;;;;11.83;64.82;103933.81;5043915;27;124051;-65
2021/12/18 08:44:23;;;;;;;5.43;2.17;;;;;;;11.79;64.76;103932.06;5032501;27;115296;-64
2021/12/18 08:46:50;;;;;;;6.55;2.50;;;;;;;11.75;64.62;103935.56;5049050;27;114803;-64
2021/12/18 08:49:18;;;;;;;7.30;2.17;;;;;;;11.69;64.97;103940.91;5052666;27;124092;-64
2021/12/18 08:51:45;;;;;;;6.72;1.95;;;;;;;11.67;65.11;103937.34;5054291;27;124221;-64
2021/12/18 08:54:12;;;;;;;5.82;1.90;;;;;;;11.65;65.02;103939.13;5050105;27;113358;-64
2021/12/18 08:56:59;;;;;;;5.38;2.05;;;;;;;11.65;65.10;103939.13;5032730;27;113261;-65
2021/12/18 08:59:27;;;;;;;6.13;1.73;;;;;;;11.64;64.94;103935.59;5032471;27;123179;-64
2021/12/18 09:01:54;;;;;;;5.80;1.83;;;;;;;11.64;65.06;103942.66;5043123;27;122655;-65
2021/12/18 09:04:21;;;;;;;4.53;1.63;;;;;;;11.64;65.10;103937.34;5056064;27;114948;-65
2021/12/18 09:06:49;;;;;;;4.63;1.80;;;;;;;11.64;65.07;103932.03;5060298;27;114981;-65
2021/12/18 09:09:16;;;;;;;4.88;1.50;;;;;;;11.64;64.99;103932.03;5055780;27;123878;-65
2021/12/18 09:11:43;;;;;;;4.82;1.80;;;;;;;11.65;65.18;103923.19;5050967;27;123756;-65
2021/12/18 09:14:10;;;;;;;5.07;1.90;;;;;;;11.66;65.09;103925.88;5046346;27;113277;-65
2021/12/18 09:16:37;;;;;;;4.10;1.50;;;;;;;11.67;65.08;103937.34;5062205;27;114566;-65
2021/12/18 09:19:04;;;;;;;5.50;1.73;;;;;;;11.68;65.08;103933.84;5041099;27;123938;-65
2021/12/18 09:21:31;;;;;;;5.10;1.63;;;;;;;11.69;65.24;103931.16;5069208;27;123665;-65
2021/12/18 09:23:58;;;;;;;4.68;1.80;;;;;;;11.72;65.27;103935.59;5057865;27;113291;-65
2021/12/18 09:26:26;;;;;;;4.75;2.10;;;;;;;11.74;65.10;103938.25;5066119;27;114001;-65
2021/12/18 09:28:54;;;;;;;5.47;2.25;;;;;;;11.74;65.00;103933.81;5058194;27;124923;-65
2021/12/18 09:31:21;;;;;;;5.20;1.85;;;;;;;11.76;64.91;103942.69;5048813;27;123975;-65
2021/12/18 09:33:48;;;;;;;6.47;2.03;;;;;;;11.72;64.75;103938.25;5033617;27;115088;-65
2021/12/18 09:36:16;;;;;;;5.70;1.77;;;;;;;11.69;64.92;103935.59;5056494;27;115286;-65
2021/12/18 09:38:43;;;;;;;2.70;1.13;;;;;;;11.71;64.82;103933.81;5063773;27;123964;-65
2021/12/18 09:41:11;;;;;;;3.15;1.20;;;;;;;11.72;65.00;103934.72;5056602;27;124370;-65
2021/12/18 09:43:38;;;;;;;3.00;1.17;;;;;;;11.74;64.92;103933.81;5051597;27;114190;-66
2021/12/18 09:46:08;;;;;;;2.60;1.10;;;;;;;11.75;64.88;103930.25;5055472;27;114671;-65
2021/12/18 09:48:37;;;;;;;2.05;1.10;;;;;;;11.75;64.66;103935.56;5047589;27;124305;-64
2021/12/18 09:51:08;;;;;;;2.55;1.05;;;;;;;11.74;64.65;103933.81;5047878;27;123896;-64
2021/12/18 09:53:36;;;;;;;3.67;1.20;;;;;;;11.75;64.87;103935.56;5057081;27;114320;-64
2021/12/18 09:56:04;;;;;;;2.47;1.00;;;;;;;11.75;64.92;103930.25;5060114;27;114450;-64
2021/12/18 09:58:32;;;;;;;2.58;1.20;;;;;;;11.79;64.83;103931.16;5059564;27;124153;-65
2021/12/18 10:00:59;;;;;;;3.00;1.30;;;;;;;11.81;64.92;103927.63;5036233;27;124819;-64
2021/12/18 10:03:43;;;;;;;3.05;1.23;;;;;;;11.83;64.82;103933.81;5049598;27;114652;-64
2021/12/18 10:06:33;;;;;;;2.90;1.27;;;;;;;11.83;64.85;103917.88;5067087;27;114170;-64
2021/12/18 10:09:03;;;;;;;5.32;1.20;;;;;;;11.85;64.75;103924.09;5035302;27;123039;-63
2021/12/18 10:11:31;;;;;;;2.10;1.30;;;;;;;11.84;64.92;103919.66;5058154;27;124344;-64
2021/12/18 10:14:02;;;;;;;4.32;1.40;;;;;;;11.84;64.66;103914.34;5042561;27;114531;-64
2021/12/18 10:16:30;;;;;;;3.08;1.30;;;;;;;11.83;64.68;103911.72;5064680;27;113728;-64
2021/12/18 10:18:59;;;;;;;3.85;1.20;;;;;;;11.82;64.56;103910.78;5072510;27;124161;-65
2021/12/18 10:21:29;;;;;;;3.90;1.63;;;;;;;11.83;64.34;103909.94;5065655;27;123943;-64
2021/12/18 10:24:12;;;;;;;4.00;1.58;;;;;;;11.84;64.65;103902.84;5067263;27;115470;-64
2021/12/18 10:26:43;;;;;;;3.33;1.45;;;;;;;11.85;64.62;103899.31;5062981;27;116387;-65
2021/12/18 10:29:35;;;;;;;4.72;1.50;;;;;;;11.84;64.69;103903.72;5055453;27;124190;-65
2021/12/18 10:32:10;;;;;;;4.05;1.42;;;;;;;11.84;64.59;103903.72;5044238;27;123396;-64
2021/12/18 10:34:39;;;;;;;4.05;1.52;;;;;;;11.83;64.63;103901.97;5057191;27;114249;-64
2021/12/18 10:37:27;;;;;;;4.93;1.60;;;;;;;11.85;64.67;103905.50;5047957;27;113716;-64
2021/12/18 10:39:54;;;;;;;4.97;1.90;;;;;;;11.85;64.73;103904.63;5050236;27;124345;-66
2021/12/18 10:42:33;;;;;;;3.38;1.70;;;;;;;11.84;64.82;103898.41;5045535;27;123797;-64
2021/12/18 10:45:09;;;;;;;5.70;2.10;;;;;;;11.82;64.71;103894.88;5050975;27;114593;-63
2021/12/18 10:47:42;;;;;;;6.15;2.30;;;;;;;11.82;64.75;103902.81;5071668;27;113806;-64
2021/12/18 10:50:21;;;;;;;3.78;1.75;;;;;;;11.83;64.73;103896.66;5044566;27;124604;-65
2021/12/18 10:52:57;;;;;;;4.95;1.80;;;;;;;11.84;64.67;103897.53;5066674;27;124252;-65
2021/12/18 10:55:32;;;;;;;3.72;1.70;;;;;;;11.84;64.83;103893.09;5049609;27;115417;-66
2021/12/18 10:58:01;;;;;;;4.05;2.00;;;;;;;11.84;64.71;103882.47;5043699;27;113698;-66
2021/12/18 11:00:35;;;;;;;3.90;1.50;;;;;;;11.83;64.57;103886.03;5056895;27;124167;-64
2021/12/18 11:03:26;;;;;;;3.88;1.70;;;;;;;11.83;64.84;103891.34;5049807;27;123899;-64
2021/12/18 11:06:10;;;;;;;3.72;1.88;;;;;;;11.80;64.57;103888.66;5050960;27;114057;-66
2021/12/18 11:09:10;;;;;;;5.78;2.10;;;;;;;11.79;64.45;103900.19;5061954;27;114486;-65
2021/12/18 11:14:17;;;;;;;4.32;1.77;;;;;;;11.70;64.66;103894.88;5054271;27;124203;-65
2021/12/18 11:16:48;;;;;;;3.85;2.05;;;;;;;11.71;64.84;103896.63;5056652;27;115277;-65
2021/12/18 11:19:18;;;;;;;5.15;2.20;;;;;;;11.74;64.89;103891.34;5052351;27;115505;-65
2021/12/18 11:21:51;;;;;;;3.88;2.08;;;;;;;11.76;65.01;103889.56;5060482;27;124121;-64
2021/12/18 11:24:21;;;;;;;5.65;2.20;;;;;;;11.77;64.78;103895.75;5043755;27;122658;-65
2021/12/18 11:27:15;;;;;;;4.82;2.17;;;;;;;11.75;64.66;103893.09;5063697;27;114167;-64
2021/12/18 11:29:51;;;;;;;4.28;2.20;;;;;;;11.70;64.66;103889.59;5059487;27;114694;-64
2021/12/18 11:32:24;;;;;;;5.38;2.10;;;;;;;11.67;64.58;103894.88;5065859;27;124496;-64
2021/12/18 11:34:54;;;;;;;4.47;2.08;;;;;;;11.62;64.44;103886.03;5065147;27;123948;-64
2021/12/18 11:37:24;;;;;;;3.63;1.50;;;;;;;11.58;64.59;103881.59;5038829;27;114828;-65
2021/12/18 11:39:57;;;;;;;6.53;2.10;;;;;;;11.52;64.61;103884.28;5044013;27;113834;-65
2021/12/18 11:42:32;;;;;;;3.60;1.90;;;;;;;11.48;64.65;103880.72;5035459;27;124010;-65
2021/12/18 11:45:03;;;;;;;3.75;1.73;;;;;;;11.47;64.59;103882.50;5033357;27;123830;-65
2021/12/18 11:47:42;;;;;;;2.90;1.63;;;;;;;11.46;64.67;103879.84;5061060;27;114365;-64
2021/12/18 11:50:28;;;;;;;4.63;1.80;;;;;;;11.46;64.44;103879.84;5058216;27;114489;-65
2021/12/18 11:52:57;;;;;;;3.53;1.60;;;;;;;11.41;64.43;103877.16;5060219;27;124418;-65
2021/12/18 11:55:28;;;;;;;3.92;2.08;;;;;;;11.38;64.62;103877.19;5054700;27;122768;-65
2021/12/18 11:57:58;;;;;;;4.63;2.13;;;;;;;11.34;64.59;103870.13;5069971;27;114393;-64
2021/12/18 12:00:45;;;;;;;4.13;1.98;;;;;;;11.32;64.54;103861.28;5057236;27;114305;-65
2021/12/18 12:03:36;;;;;;;5.05;2.08;;;;;;;11.29;64.70;103850.66;5052522;27;124810;-65
2021/12/18 12:06:37;;;;;;;4.13;2.10;;;;;;;11.29;64.79;103850.66;5016772;27;122913;-65
2021/12/18 12:09:35;;;;;;;3.90;2.30;;;;;;;11.29;64.63;103855.97;5041327;27;115527;-64
2021/12/18 12:12:05;;;;;;;3.70;1.92;;;;;;;11.27;64.70;103852.44;5058879;27;115862;-64
2021/12/18 12:14:35;;;;;;;3.70;1.77;;;;;;;11.27;64.48;103852.44;5052445;27;124828;-64